sensor_id;sensor_type;location;lat;lon;timestamp;temperature;humidity
71188;DHT22;58893;53.130;8.158;2023-02-27T00:00:55;3.60;65.10
71188;DHT22;58893;53.130;8.158;2023-02-27T00:03:20;3.60;64.50
71188;DHT22;58893;53.130;8.158;2023-02-27T00:05:46;3.50;64.50
71188;DHT22;58893;53.130;8.158;2023-02-27T00:08:12;3.50;64.60
71188;DHT22;58893;53.130;8.158;2023-02-27T00:10:38;3.50;64.50
71188;DHT22;58893;53.130;8.158;2023-02-27T00:13:03;3.50;64.50
71188;DHT22;58893;53.130;8.158;2023-02-27T00:15:29;3.50;64.70
71188;DHT22;58893;53.130;8.158;2023-02-27T00:17:57;3.50;64.80
71188;DHT22;58893;53.130;8.158;2023-02-27T00:20:23;3.50;64.90
71188;DHT22;58893;53.130;8.158;2023-02-27T00:22:49;3.40;64.80
71188;DHT22;58893;53.130;8.158;2023-02-27T00:25:14;3.40;64.90
71188;DHT22;58893;53.130;8.158;2023-02-27T00:27:41;3.40;65.00
71188;DHT22;58893;53.130;8.158;2023-02-27T00:30:09;3.40;64.90
71188;DHT22;58893;53.130;8.158;2023-02-27T00:32:35;3.40;65.00
71188;DHT22;58893;53.130;8.158;2023-02-27T00:35:03;3.40;65.20
71188;DHT22;58893;53.130;8.158;2023-02-27T00:37:29;3.40;65.20
71188;DHT22;58893;53.130;8.158;2023-02-27T00:39:54;3.30;65.20
71188;DHT22;58893;53.130;8.158;2023-02-27T00:42:20;3.30;65.30
71188;DHT22;58893;53.130;8.158;2023-02-27T00:44:45;3.30;65.40
71188;DHT22;58893;53.130;8.158;2023-02-27T00:47:11;3.30;65.40
71188;DHT22;58893;53.130;8.158;2023-02-27T00:49:36;3.30;65.50
71188;DHT22;58893;53.130;8.158;2023-02-27T00:52:02;3.30;65.70
71188;DHT22;58893;53.130;8.158;2023-02-27T00:54:28;3.20;65.70
71188;DHT22;58893;53.130;8.158;2023-02-27T00:56:54;3.20;66.40
71188;DHT22;58893;53.130;8.158;2023-02-27T00:59:20;3.30;65.90
71188;DHT22;58893;53.130;8.158;2023-02-27T01:01:46;3.20;66.00
71188;DHT22;58893;53.130;8.158;2023-02-27T01:04:11;3.20;66.00
71188;DHT22;58893;53.130;8.158;2023-02-27T01:06:37;3.20;66.00
71188;DHT22;58893;53.130;8.158;2023-02-27T01:09:03;3.20;66.00
71188;DHT22;58893;53.130;8.158;2023-02-27T01:11:28;3.20;66.00
71188;DHT22;58893;53.130;8.158;2023-02-27T01:13:54;3.20;66.10
71188;DHT22;58893;53.130;8.158;2023-02-27T01:16:20;3.20;66.30
71188;DHT22;58893;53.130;8.158;2023-02-27T01:18:46;3.20;66.30
71188;DHT22;58893;53.130;8.158;2023-02-27T01:21:11;3.20;66.20
71188;DHT22;58893;53.130;8.158;2023-02-27T01:23:37;3.10;65.90
71188;DHT22;58893;53.130;8.158;2023-02-27T01:26:02;3.10;66.00
71188;DHT22;58893;53.130;8.158;2023-02-27T01:28:28;3.10;66.10
71188;DHT22;58893;53.130;8.158;2023-02-27T01:30:54;3.10;66.20
71188;DHT22;58893;53.130;8.158;2023-02-27T01:33:19;3.10;66.20
71188;DHT22;58893;53.130;8.158;2023-02-27T01:35:45;3.00;66.10
71188;DHT22;58893;53.130;8.158;2023-02-27T01:38:11;3.00;66.00
71188;DHT22;58893;53.130;8.158;2023-02-27T01:40:38;3.00;66.10
71188;DHT22;58893;53.130;8.158;2023-02-27T01:43:05;3.00;66.10
71188;DHT22;58893;53.130;8.158;2023-02-27T01:45:36;3.00;66.00
71188;DHT22;58893;53.130;8.158;2023-02-27T01:48:05;3.00;66.00
71188;DHT22;58893;53.130;8.158;2023-02-27T01:50:34;3.00;65.60
71188;DHT22;58893;53.130;8.158;2023-02-27T01:53:01;2.90;65.70
71188;DHT22;58893;53.130;8.158;2023-02-27T01:55:29;2.90;65.90
71188;DHT22;58893;53.130;8.158;2023-02-27T01:57:56;2.90;65.90
71188;DHT22;58893;53.130;8.158;2023-02-27T02:00:22;2.90;66.10
71188;DHT22;58893;53.130;8.158;2023-02-27T02:02:56;2.90;66.20
71188;DHT22;58893;53.130;8.158;2023-02-27T02:05:23;2.90;66.30
71188;DHT22;58893;53.130;8.158;2023-02-27T02:07:49;2.90;66.20
71188;DHT22;58893;53.130;8.158;2023-02-27T02:10:16;2.90;66.40
71188;DHT22;58893;53.130;8.158;2023-02-27T02:12:42;2.90;66.40
71188;DHT22;58893;53.130;8.158;2023-02-27T02:15:09;2.90;66.30
71188;DHT22;58893;53.130;8.158;2023-02-27T02:42:52;2.70;65.50
71188;DHT22;58893;53.130;8.158;2023-02-27T02:45:25;2.70;65.70
71188;DHT22;58893;53.130;8.158;2023-02-27T02:50:55;2.70;65.90
71188;DHT22;58893;53.130;8.158;2023-02-27T02:56:24;2.70;66.10
71188;DHT22;58893;53.130;8.158;2023-02-27T02:59:24;2.70;66.30
71188;DHT22;58893;53.130;8.158;2023-02-27T03:02:00;2.60;66.20
71188;DHT22;58893;53.130;8.158;2023-02-27T03:05:09;2.60;66.20
71188;DHT22;58893;53.130;8.158;2023-02-27T03:07:38;2.70;66.20
71188;DHT22;58893;53.130;8.158;2023-02-27T03:12:39;2.60;66.20
71188;DHT22;58893;53.130;8.158;2023-02-27T03:15:23;2.60;66.20
71188;DHT22;58893;53.130;8.158;2023-02-27T03:17:51;2.60;66.10
71188;DHT22;58893;53.130;8.158;2023-02-27T03:20:26;2.50;66.20
71188;DHT22;58893;53.130;8.158;2023-02-27T03:22:55;2.50;66.50
71188;DHT22;58893;53.130;8.158;2023-02-27T03:25:24;2.50;66.70
71188;DHT22;58893;53.130;8.158;2023-02-27T03:28:03;2.50;66.80
71188;DHT22;58893;53.130;8.158;2023-02-27T03:30:49;2.50;66.90
71188;DHT22;58893;53.130;8.158;2023-02-27T03:33:39;2.50;66.90
71188;DHT22;58893;53.130;8.158;2023-02-27T03:36:11;2.50;66.60
71188;DHT22;58893;53.130;8.158;2023-02-27T03:39:10;2.50;66.40
71188;DHT22;58893;53.130;8.158;2023-02-27T03:44:36;2.50;66.40
71188;DHT22;58893;53.130;8.158;2023-02-27T03:47:04;2.50;66.30
71188;DHT22;58893;53.130;8.158;2023-02-27T03:49:30;2.40;66.10
71188;DHT22;58893;53.130;8.158;2023-02-27T03:51:55;2.40;66.10
71188;DHT22;58893;53.130;8.158;2023-02-27T03:54:26;2.40;66.10
71188;DHT22;58893;53.130;8.158;2023-02-27T03:57:13;2.40;66.20
71188;DHT22;58893;53.130;8.158;2023-02-27T03:59:40;2.40;66.40
71188;DHT22;58893;53.130;8.158;2023-02-27T04:02:06;2.40;66.40
71188;DHT22;58893;53.130;8.158;2023-02-27T04:04:32;2.40;66.50
71188;DHT22;58893;53.130;8.158;2023-02-27T04:07:32;2.40;66.40
71188;DHT22;58893;53.130;8.158;2023-02-27T04:32:03;2.30;65.80
71188;DHT22;58893;53.130;8.158;2023-02-27T04:34:40;2.20;65.50
71188;DHT22;58893;53.130;8.158;2023-02-27T04:37:21;2.20;65.40
71188;DHT22;58893;53.130;8.158;2023-02-27T04:39:55;2.20;65.50
71188;DHT22;58893;53.130;8.158;2023-02-27T04:42:28;2.20;65.60
71188;DHT22;58893;53.130;8.158;2023-02-27T04:44:57;2.10;65.60
71188;DHT22;58893;53.130;8.158;2023-02-27T04:47:28;2.10;65.70
71188;DHT22;58893;53.130;8.158;2023-02-27T04:50:12;2.10;65.90
71188;DHT22;58893;53.130;8.158;2023-02-27T04:52:46;2.10;66.00
71188;DHT22;58893;53.130;8.158;2023-02-27T04:55:20;2.10;66.10
71188;DHT22;58893;53.130;8.158;2023-02-27T04:57:50;2.10;66.00
71188;DHT22;58893;53.130;8.158;2023-02-27T05:00:19;2.10;66.00
71188;DHT22;58893;53.130;8.158;2023-02-27T05:02:59;2.10;65.70
71188;DHT22;58893;53.130;8.158;2023-02-27T05:05:28;2.10;65.40
71188;DHT22;58893;53.130;8.158;2023-02-27T05:08:37;2.00;65.30
71188;DHT22;58893;53.130;8.158;2023-02-27T05:11:20;2.10;65.20
71188;DHT22;58893;53.130;8.158;2023-02-27T05:13:54;2.00;65.00
71188;DHT22;58893;53.130;8.158;2023-02-27T05:16:48;2.00;64.90
71188;DHT22;58893;53.130;8.158;2023-02-27T05:19:15;2.00;64.70
71188;DHT22;58893;53.130;8.158;2023-02-27T05:22:04;2.00;64.70
71188;DHT22;58893;53.130;8.158;2023-02-27T05:24:39;1.90;64.60
71188;DHT22;58893;53.130;8.158;2023-02-27T05:38:13;1.90;65.90
71188;DHT22;58893;53.130;8.158;2023-02-27T05:40:45;1.90;66.20
71188;DHT22;58893;53.130;8.158;2023-02-27T05:43:15;1.90;66.60
71188;DHT22;58893;53.130;8.158;2023-02-27T05:45:46;2.00;67.00
71188;DHT22;58893;53.130;8.158;2023-02-27T05:48:16;2.00;67.50
71188;DHT22;58893;53.130;8.158;2023-02-27T05:50:44;2.00;67.50
71188;DHT22;58893;53.130;8.158;2023-02-27T05:53:15;2.00;67.70
71188;DHT22;58893;53.130;8.158;2023-02-27T05:55:51;2.10;68.20
71188;DHT22;58893;53.130;8.158;2023-02-27T05:58:19;2.10;68.40
71188;DHT22;58893;53.130;8.158;2023-02-27T06:00:53;2.10;68.80
71188;DHT22;58893;53.130;8.158;2023-02-27T06:03:21;2.20;69.60
71188;DHT22;58893;53.130;8.158;2023-02-27T06:05:48;2.20;69.30
71188;DHT22;58893;53.130;8.158;2023-02-27T06:08:17;2.30;69.60
71188;DHT22;58893;53.130;8.158;2023-02-27T06:10:43;2.30;69.80
71188;DHT22;58893;53.130;8.158;2023-02-27T06:13:09;2.30;70.00
71188;DHT22;58893;53.130;8.158;2023-02-27T06:15:34;2.40;70.20
71188;DHT22;58893;53.130;8.158;2023-02-27T06:18:00;2.40;70.40
71188;DHT22;58893;53.130;8.158;2023-02-27T06:20:26;2.40;70.50
71188;DHT22;58893;53.130;8.158;2023-02-27T06:22:51;2.50;70.70
71188;DHT22;58893;53.130;8.158;2023-02-27T06:25:17;2.50;70.90
71188;DHT22;58893;53.130;8.158;2023-02-27T06:27:43;2.50;70.80
71188;DHT22;58893;53.130;8.158;2023-02-27T06:30:09;2.60;70.80
71188;DHT22;58893;53.130;8.158;2023-02-27T06:32:34;2.60;70.80
71188;DHT22;58893;53.130;8.158;2023-02-27T06:35:00;2.60;70.70
71188;DHT22;58893;53.130;8.158;2023-02-27T06:37:26;2.70;70.70
71188;DHT22;58893;53.130;8.158;2023-02-27T06:39:51;2.70;70.60
71188;DHT22;58893;53.130;8.158;2023-02-27T06:42:17;2.70;70.60
71188;DHT22;58893;53.130;8.158;2023-02-27T06:44:43;2.70;70.50
71188;DHT22;58893;53.130;8.158;2023-02-27T06:47:08;2.80;70.70
71188;DHT22;58893;53.130;8.158;2023-02-27T06:49:34;2.80;70.70
71188;DHT22;58893;53.130;8.158;2023-02-27T06:52:00;2.80;71.40
71188;DHT22;58893;53.130;8.158;2023-02-27T06:54:25;2.80;71.30
71188;DHT22;58893;53.130;8.158;2023-02-27T06:56:51;2.80;71.60
71188;DHT22;58893;53.130;8.158;2023-02-27T06:59:16;2.90;72.00
71188;DHT22;58893;53.130;8.158;2023-02-27T07:01:42;2.90;72.10
71188;DHT22;58893;53.130;8.158;2023-02-27T07:04:12;2.90;73.00
71188;DHT22;58893;53.130;8.158;2023-02-27T07:06:38;2.90;72.50
71188;DHT22;58893;53.130;8.158;2023-02-27T07:09:03;3.00;72.90
71188;DHT22;58893;53.130;8.158;2023-02-27T07:11:29;3.00;73.10
71188;DHT22;58893;53.130;8.158;2023-02-27T07:13:55;3.00;73.30
71188;DHT22;58893;53.130;8.158;2023-02-27T07:16:21;3.10;73.50
71188;DHT22;58893;53.130;8.158;2023-02-27T07:18:46;3.10;73.50
71188;DHT22;58893;53.130;8.158;2023-02-27T07:21:12;3.20;73.60
71188;DHT22;58893;53.130;8.158;2023-02-27T07:23:39;3.10;73.60
71188;DHT22;58893;53.130;8.158;2023-02-27T07:26:05;3.20;73.80
71188;DHT22;58893;53.130;8.158;2023-02-27T07:28:31;3.20;73.80
71188;DHT22;58893;53.130;8.158;2023-02-27T07:30:56;3.30;74.00
71188;DHT22;58893;53.130;8.158;2023-02-27T07:33:22;3.30;74.00
71188;DHT22;58893;53.130;8.158;2023-02-27T07:35:48;3.30;74.10
71188;DHT22;58893;53.130;8.158;2023-02-27T07:38:14;3.40;74.40
71188;DHT22;58893;53.130;8.158;2023-02-27T07:40:39;3.40;74.60
71188;DHT22;58893;53.130;8.158;2023-02-27T07:43:06;3.40;74.80
71188;DHT22;58893;53.130;8.158;2023-02-27T07:45:32;3.40;74.90
71188;DHT22;58893;53.130;8.158;2023-02-27T07:47:57;3.50;75.20
71188;DHT22;58893;53.130;8.158;2023-02-27T07:50:23;3.50;75.40
71188;DHT22;58893;53.130;8.158;2023-02-27T07:52:50;3.60;75.50
71188;DHT22;58893;53.130;8.158;2023-02-27T07:55:16;3.60;75.70
71188;DHT22;58893;53.130;8.158;2023-02-27T07:57:44;3.70;76.40
71188;DHT22;58893;53.130;8.158;2023-02-27T08:00:10;3.70;75.80
71188;DHT22;58893;53.130;8.158;2023-02-27T08:02:36;3.80;75.90
71188;DHT22;58893;53.130;8.158;2023-02-27T08:05:02;3.80;75.80
71188;DHT22;58893;53.130;8.158;2023-02-27T08:07:28;3.90;75.80
71188;DHT22;58893;53.130;8.158;2023-02-27T08:09:54;3.90;75.70
71188;DHT22;58893;53.130;8.158;2023-02-27T08:12:19;4.00;75.70
71188;DHT22;58893;53.130;8.158;2023-02-27T08:14:45;4.00;75.70
71188;DHT22;58893;53.130;8.158;2023-02-27T08:17:11;4.00;75.90
71188;DHT22;58893;53.130;8.158;2023-02-27T08:19:36;4.10;76.00
71188;DHT22;58893;53.130;8.158;2023-02-27T08:22:02;4.10;76.30
71188;DHT22;58893;53.130;8.158;2023-02-27T08:24:28;4.20;77.60
71188;DHT22;58893;53.130;8.158;2023-02-27T08:26:54;4.30;81.30
71188;DHT22;58893;53.130;8.158;2023-02-27T08:29:19;4.60;86.60
71188;DHT22;58893;53.130;8.158;2023-02-27T08:31:45;4.80;86.20
71188;DHT22;58893;53.130;8.158;2023-02-27T08:34:11;5.10;84.40
71188;DHT22;58893;53.130;8.158;2023-02-27T08:36:37;5.40;82.50
71188;DHT22;58893;53.130;8.158;2023-02-27T08:39:04;5.70;80.60
71188;DHT22;58893;53.130;8.158;2023-02-27T08:41:29;6.00;78.20
71188;DHT22;58893;53.130;8.158;2023-02-27T08:43:55;6.20;76.50
71188;DHT22;58893;53.130;8.158;2023-02-27T08:46:21;6.40;75.10
71188;DHT22;58893;53.130;8.158;2023-02-27T08:48:46;6.60;74.40
71188;DHT22;58893;53.130;8.158;2023-02-27T08:51:12;6.90;73.50
71188;DHT22;58893;53.130;8.158;2023-02-27T08:53:37;7.10;72.60
71188;DHT22;58893;53.130;8.158;2023-02-27T08:56:03;7.30;71.80
71188;DHT22;58893;53.130;8.158;2023-02-27T08:58:29;7.50;70.40
71188;DHT22;58893;53.130;8.158;2023-02-27T09:00:55;7.60;68.80
71188;DHT22;58893;53.130;8.158;2023-02-27T09:03:21;7.70;68.40
71188;DHT22;58893;53.130;8.158;2023-02-27T09:05:47;7.70;67.50
71188;DHT22;58893;53.130;8.158;2023-02-27T09:08:13;7.80;67.20
71188;DHT22;58893;53.130;8.158;2023-02-27T09:10:39;7.80;66.80
71188;DHT22;58893;53.130;8.158;2023-02-27T09:13:05;7.80;66.50
71188;DHT22;58893;53.130;8.158;2023-02-27T09:15:31;7.80;66.40
71188;DHT22;58893;53.130;8.158;2023-02-27T09:17:58;7.80;66.30
71188;DHT22;58893;53.130;8.158;2023-02-27T09:20:33;7.70;66.00
71188;DHT22;58893;53.130;8.158;2023-02-27T09:23:03;7.70;66.10
71188;DHT22;58893;53.130;8.158;2023-02-27T09:25:29;7.70;65.90
71188;DHT22;58893;53.130;8.158;2023-02-27T09:27:55;7.60;65.60
71188;DHT22;58893;53.130;8.158;2023-02-27T09:30:21;7.60;65.50
71188;DHT22;58893;53.130;8.158;2023-02-27T09:32:47;7.60;65.50
71188;DHT22;58893;53.130;8.158;2023-02-27T09:35:12;7.50;65.30
71188;DHT22;58893;53.130;8.158;2023-02-27T09:37:40;7.50;66.20
71188;DHT22;58893;53.130;8.158;2023-02-27T09:40:07;7.50;65.10
71188;DHT22;58893;53.130;8.158;2023-02-27T09:42:40;7.50;65.30
71188;DHT22;58893;53.130;8.158;2023-02-27T09:45:22;7.50;64.80
71188;DHT22;58893;53.130;8.158;2023-02-27T09:47:52;7.50;64.60
71188;DHT22;58893;53.130;8.158;2023-02-27T09:50:32;7.50;64.80
71188;DHT22;58893;53.130;8.158;2023-02-27T09:53:02;7.50;65.40
71188;DHT22;58893;53.130;8.158;2023-02-27T09:55:30;7.50;65.80
71188;DHT22;58893;53.130;8.158;2023-02-27T09:58:29;7.60;65.40
71188;DHT22;58893;53.130;8.158;2023-02-27T10:08:36;7.70;59.30
71188;DHT22;58893;53.130;8.158;2023-02-27T10:11:08;7.70;59.00
71188;DHT22;58893;53.130;8.158;2023-02-27T10:16:14;7.80;56.90
71188;DHT22;58893;53.130;8.158;2023-02-27T10:23:56;7.90;57.10
71188;DHT22;58893;53.130;8.158;2023-02-27T10:26:35;8.00;57.10
71188;DHT22;58893;53.130;8.158;2023-02-27T10:29:14;8.00;56.40
71188;DHT22;58893;53.130;8.158;2023-02-27T10:31:41;8.10;56.40
71188;DHT22;58893;53.130;8.158;2023-02-27T10:34:12;8.10;56.00
71188;DHT22;58893;53.130;8.158;2023-02-27T10:36:44;8.10;56.70
71188;DHT22;58893;53.130;8.158;2023-02-27T10:39:14;8.20;56.50
71188;DHT22;58893;53.130;8.158;2023-02-27T10:41:41;8.20;56.40
71188;DHT22;58893;53.130;8.158;2023-02-27T10:44:10;8.30;57.00
71188;DHT22;58893;53.130;8.158;2023-02-27T10:46:39;8.40;55.60
71188;DHT22;58893;53.130;8.158;2023-02-27T10:49:17;8.50;55.30
71188;DHT22;58893;53.130;8.158;2023-02-27T10:51:43;8.50;54.50
71188;DHT22;58893;53.130;8.158;2023-02-27T10:56:46;8.50;52.00
71188;DHT22;58893;53.130;8.158;2023-02-27T10:59:22;8.50;52.00
71188;DHT22;58893;53.130;8.158;2023-02-27T11:04:51;8.60;51.00
71188;DHT22;58893;53.130;8.158;2023-02-27T11:07:37;8.60;50.80
71188;DHT22;58893;53.130;8.158;2023-02-27T11:12:38;8.70;51.20
71188;DHT22;58893;53.130;8.158;2023-02-27T11:17:39;8.70;51.50
71188;DHT22;58893;53.130;8.158;2023-02-27T11:23:14;8.60;52.70
71188;DHT22;58893;53.130;8.158;2023-02-27T11:25:40;8.50;52.00
71188;DHT22;58893;53.130;8.158;2023-02-27T11:31:05;8.50;51.80
71188;DHT22;58893;53.130;8.158;2023-02-27T11:33:35;8.50;52.50
71188;DHT22;58893;53.130;8.158;2023-02-27T11:36:03;8.50;52.40
71188;DHT22;58893;53.130;8.158;2023-02-27T11:38:30;8.50;51.90
71188;DHT22;58893;53.130;8.158;2023-02-27T11:41:02;8.50;51.50
71188;DHT22;58893;53.130;8.158;2023-02-27T11:43:31;8.60;51.00
71188;DHT22;58893;53.130;8.158;2023-02-27T11:46:00;8.60;51.30
71188;DHT22;58893;53.130;8.158;2023-02-27T11:48:48;8.60;51.60
71188;DHT22;58893;53.130;8.158;2023-02-27T11:56:53;8.50;52.20
71188;DHT22;58893;53.130;8.158;2023-02-27T12:02:16;8.60;52.40
71188;DHT22;58893;53.130;8.158;2023-02-27T12:07:32;8.50;51.50
71188;DHT22;58893;53.130;8.158;2023-02-27T12:10:20;8.50;51.80
71188;DHT22;58893;53.130;8.158;2023-02-27T12:12:59;8.50;52.10
71188;DHT22;58893;53.130;8.158;2023-02-27T12:23:19;8.50;51.60
71188;DHT22;58893;53.130;8.158;2023-02-27T12:34:16;8.60;51.60
71188;DHT22;58893;53.130;8.158;2023-02-27T12:36:44;8.60;51.80
71188;DHT22;58893;53.130;8.158;2023-02-27T12:39:18;8.60;52.00
71188;DHT22;58893;53.130;8.158;2023-02-27T12:50:20;8.80;52.00
71188;DHT22;58893;53.130;8.158;2023-02-27T12:56:17;8.80;52.50
71188;DHT22;58893;53.130;8.158;2023-02-27T13:14:35;8.90;54.40
71188;DHT22;58893;53.130;8.158;2023-02-27T13:19:43;8.90;54.80
71188;DHT22;58893;53.130;8.158;2023-02-27T13:24:50;8.90;54.60
71188;DHT22;58893;53.130;8.158;2023-02-27T13:27:34;9.00;54.90
71188;DHT22;58893;53.130;8.158;2023-02-27T13:32:47;9.00;55.60
71188;DHT22;58893;53.130;8.158;2023-02-27T13:37:55;9.00;54.90
71188;DHT22;58893;53.130;8.158;2023-02-27T13:43:03;9.00;54.20
71188;DHT22;58893;53.130;8.158;2023-02-27T13:50:59;9.00;53.30
71188;DHT22;58893;53.130;8.158;2023-02-27T13:53:25;9.00;53.30
71188;DHT22;58893;53.130;8.158;2023-02-27T13:55:56;9.00;53.00
71188;DHT22;58893;53.130;8.158;2023-02-27T13:58:23;9.10;53.00
71188;DHT22;58893;53.130;8.158;2023-02-27T14:00:57;9.00;53.20
71188;DHT22;58893;53.130;8.158;2023-02-27T14:03:26;9.10;53.10
71188;DHT22;58893;53.130;8.158;2023-02-27T14:05:56;9.10;53.10
71188;DHT22;58893;53.130;8.158;2023-02-27T14:08:27;9.10;52.80
71188;DHT22;58893;53.130;8.158;2023-02-27T14:10:58;9.10;52.80
71188;DHT22;58893;53.130;8.158;2023-02-27T14:24:43;9.00;53.20
71188;DHT22;58893;53.130;8.158;2023-02-27T14:27:23;9.00;53.20
71188;DHT22;58893;53.130;8.158;2023-02-27T14:29:53;9.10;53.40
71188;DHT22;58893;53.130;8.158;2023-02-27T14:32:30;9.10;53.50
71188;DHT22;58893;53.130;8.158;2023-02-27T14:34:56;9.00;53.60
71188;DHT22;58893;53.130;8.158;2023-02-27T14:37:24;9.00;53.80
71188;DHT22;58893;53.130;8.158;2023-02-27T14:39:52;9.00;54.10
71188;DHT22;58893;53.130;8.158;2023-02-27T14:44:47;9.00;54.90
71188;DHT22;58893;53.130;8.158;2023-02-27T14:47:34;9.00;54.50
71188;DHT22;58893;53.130;8.158;2023-02-27T14:50:19;9.00;54.30
71188;DHT22;58893;53.130;8.158;2023-02-27T14:52:46;9.00;54.40
71188;DHT22;58893;53.130;8.158;2023-02-27T14:55:27;8.90;54.40
71188;DHT22;58893;53.130;8.158;2023-02-27T15:00:37;9.00;54.80
71188;DHT22;58893;53.130;8.158;2023-02-27T15:03:24;9.00;54.80
71188;DHT22;58893;53.130;8.158;2023-02-27T15:05:53;8.90;54.90
71188;DHT22;58893;53.130;8.158;2023-02-27T15:08:22;8.90;54.80
71188;DHT22;58893;53.130;8.158;2023-02-27T15:10:50;8.90;54.70
71188;DHT22;58893;53.130;8.158;2023-02-27T15:13:22;8.90;54.70
71188;DHT22;58893;53.130;8.158;2023-02-27T15:15:48;8.90;54.60
71188;DHT22;58893;53.130;8.158;2023-02-27T15:18:16;8.90;54.70
71188;DHT22;58893;53.130;8.158;2023-02-27T15:20:42;8.90;54.70
71188;DHT22;58893;53.130;8.158;2023-02-27T15:23:22;8.90;54.60
71188;DHT22;58893;53.130;8.158;2023-02-27T15:25:48;8.90;54.90
71188;DHT22;58893;53.130;8.158;2023-02-27T15:28:26;8.80;54.90
71188;DHT22;58893;53.130;8.158;2023-02-27T15:30:54;8.80;55.70
71188;DHT22;58893;53.130;8.158;2023-02-27T15:33:27;8.80;55.20
71188;DHT22;58893;53.130;8.158;2023-02-27T15:35:54;8.90;55.10
71188;DHT22;58893;53.130;8.158;2023-02-27T15:38:31;8.90;54.50
71188;DHT22;58893;53.130;8.158;2023-02-27T15:40:59;8.90;54.40
71188;DHT22;58893;53.130;8.158;2023-02-27T15:43:27;8.90;54.30
71188;DHT22;58893;53.130;8.158;2023-02-27T15:45:53;8.90;54.20
71188;DHT22;58893;53.130;8.158;2023-02-27T15:48:20;8.90;54.20
71188;DHT22;58893;53.130;8.158;2023-02-27T15:50:48;8.80;54.00
71188;DHT22;58893;53.130;8.158;2023-02-27T15:53:19;8.80;53.90
71188;DHT22;58893;53.130;8.158;2023-02-27T15:55:51;8.80;54.10
71188;DHT22;58893;53.130;8.158;2023-02-27T15:58:24;8.80;54.20
71188;DHT22;58893;53.130;8.158;2023-02-27T16:03:27;8.70;53.90
71188;DHT22;58893;53.130;8.158;2023-02-27T16:05:55;8.70;53.80
71188;DHT22;58893;53.130;8.158;2023-02-27T16:08:21;8.70;53.50
71188;DHT22;58893;53.130;8.158;2023-02-27T16:10:48;8.60;53.70
71188;DHT22;58893;53.130;8.158;2023-02-27T16:16:03;8.60;54.10
71188;DHT22;58893;53.130;8.158;2023-02-27T16:18:43;8.60;54.40
71188;DHT22;58893;53.130;8.158;2023-02-27T16:23:38;8.50;54.90
71188;DHT22;58893;53.130;8.158;2023-02-27T16:33:58;8.50;55.20
71188;DHT22;58893;53.130;8.158;2023-02-27T16:36:27;8.50;54.90
71188;DHT22;58893;53.130;8.158;2023-02-27T16:38:53;8.50;54.90
71188;DHT22;58893;53.130;8.158;2023-02-27T16:41:20;8.50;54.90
71188;DHT22;58893;53.130;8.158;2023-02-27T16:43:47;8.50;54.80
71188;DHT22;58893;53.130;8.158;2023-02-27T16:46:15;8.40;54.90
71188;DHT22;58893;53.130;8.158;2023-02-27T16:48:54;8.50;55.00
71188;DHT22;58893;53.130;8.158;2023-02-27T16:51:26;8.40;55.30
71188;DHT22;58893;53.130;8.158;2023-02-27T16:53:53;8.40;55.40
71188;DHT22;58893;53.130;8.158;2023-02-27T16:56:20;8.40;55.60
71188;DHT22;58893;53.130;8.158;2023-02-27T16:58:47;8.40;55.80
71188;DHT22;58893;53.130;8.158;2023-02-27T17:01:13;8.40;56.00
71188;DHT22;58893;53.130;8.158;2023-02-27T17:03:40;8.40;56.20
71188;DHT22;58893;53.130;8.158;2023-02-27T17:06:06;8.40;56.40
71188;DHT22;58893;53.130;8.158;2023-02-27T17:08:36;8.40;56.50
71188;DHT22;58893;53.130;8.158;2023-02-27T17:11:02;8.40;56.50
71188;DHT22;58893;53.130;8.158;2023-02-27T17:13:28;8.40;56.60
71188;DHT22;58893;53.130;8.158;2023-02-27T17:15:54;8.40;56.80
71188;DHT22;58893;53.130;8.158;2023-02-27T17:18:19;8.30;56.90
71188;DHT22;58893;53.130;8.158;2023-02-27T17:20:45;8.30;57.00
71188;DHT22;58893;53.130;8.158;2023-02-27T17:23:11;8.30;57.20
71188;DHT22;58893;53.130;8.158;2023-02-27T17:25:38;8.30;57.30
71188;DHT22;58893;53.130;8.158;2023-02-27T17:28:04;8.30;58.10
71188;DHT22;58893;53.130;8.158;2023-02-27T17:30:30;8.30;57.60
71188;DHT22;58893;53.130;8.158;2023-02-27T17:32:55;8.30;57.60
71188;DHT22;58893;53.130;8.158;2023-02-27T17:35:21;8.20;57.30
71188;DHT22;58893;53.130;8.158;2023-02-27T17:37:46;8.20;57.40
71188;DHT22;58893;53.130;8.158;2023-02-27T17:40:12;8.20;57.50
71188;DHT22;58893;53.130;8.158;2023-02-27T17:42:38;8.10;57.50
71188;DHT22;58893;53.130;8.158;2023-02-27T17:45:05;8.20;57.50
71188;DHT22;58893;53.130;8.158;2023-02-27T17:47:32;8.10;57.30
71188;DHT22;58893;53.130;8.158;2023-02-27T17:49:58;8.20;57.40
71188;DHT22;58893;53.130;8.158;2023-02-27T17:52:24;8.20;57.40
71188;DHT22;58893;53.130;8.158;2023-02-27T17:54:50;8.20;57.10
71188;DHT22;58893;53.130;8.158;2023-02-27T17:57:16;8.20;57.10
71188;DHT22;58893;53.130;8.158;2023-02-27T17:59:41;8.20;57.10
71188;DHT22;58893;53.130;8.158;2023-02-27T18:02:11;8.20;57.00
71188;DHT22;58893;53.130;8.158;2023-02-27T18:04:37;8.10;56.90
71188;DHT22;58893;53.130;8.158;2023-02-27T18:07:04;8.10;57.00
71188;DHT22;58893;53.130;8.158;2023-02-27T18:09:30;8.10;57.00
71188;DHT22;58893;53.130;8.158;2023-02-27T18:11:56;8.10;56.90
71188;DHT22;58893;53.130;8.158;2023-02-27T18:14:22;8.10;57.00
71188;DHT22;58893;53.130;8.158;2023-02-27T18:16:48;8.10;57.10
71188;DHT22;58893;53.130;8.158;2023-02-27T18:19:13;8.10;57.20
71188;DHT22;58893;53.130;8.158;2023-02-27T18:21:39;8.10;57.20
71188;DHT22;58893;53.130;8.158;2023-02-27T18:24:07;8.10;57.30
71188;DHT22;58893;53.130;8.158;2023-02-27T18:26:33;8.10;57.30
71188;DHT22;58893;53.130;8.158;2023-02-27T18:29:01;8.10;57.90
71188;DHT22;58893;53.130;8.158;2023-02-27T18:31:29;8.10;57.40
71188;DHT22;58893;53.130;8.158;2023-02-27T18:33:57;8.10;57.30
71188;DHT22;58893;53.130;8.158;2023-02-27T18:36:22;8.10;57.40
71188;DHT22;58893;53.130;8.158;2023-02-27T18:38:48;8.10;57.40
71188;DHT22;58893;53.130;8.158;2023-02-27T18:41:14;8.10;57.50
71188;DHT22;58893;53.130;8.158;2023-02-27T18:43:41;8.10;57.70
71188;DHT22;58893;53.130;8.158;2023-02-27T18:46:08;8.10;57.80
71188;DHT22;58893;53.130;8.158;2023-02-27T18:48:34;8.10;58.00
71188;DHT22;58893;53.130;8.158;2023-02-27T18:51:06;8.10;59.00
71188;DHT22;58893;53.130;8.158;2023-02-27T18:53:36;8.10;58.90
71188;DHT22;58893;53.130;8.158;2023-02-27T18:56:04;8.20;59.00
71188;DHT22;58893;53.130;8.158;2023-02-27T18:58:30;8.20;58.80
71188;DHT22;58893;53.130;8.158;2023-02-27T19:00:56;8.20;58.80
71188;DHT22;58893;53.130;8.158;2023-02-27T19:03:22;8.20;58.90
71188;DHT22;58893;53.130;8.158;2023-02-27T19:05:48;8.20;59.20
71188;DHT22;58893;53.130;8.158;2023-02-27T19:08:15;8.10;59.30
71188;DHT22;58893;53.130;8.158;2023-02-27T19:10:41;8.10;59.40
71188;DHT22;58893;53.130;8.158;2023-02-27T19:13:07;8.10;59.50
71188;DHT22;58893;53.130;8.158;2023-02-27T19:15:39;8.00;59.70
71188;DHT22;58893;53.130;8.158;2023-02-27T19:18:05;8.00;59.90
71188;DHT22;58893;53.130;8.158;2023-02-27T19:20:31;8.00;60.10
71188;DHT22;58893;53.130;8.158;2023-02-27T19:22:57;7.90;60.20
71188;DHT22;58893;53.130;8.158;2023-02-27T19:25:23;7.90;60.40